Terminal Aerodrome Forecast
Issued by NWS

Home | Current Version | Previous Version | Text Only | Print | Product List | Glossary On
Versions: 1 2 3 4 5 6 7 8 9 10 11 12 13
000
FTUS43 KAPX 250520
TAFTVC
TAF
KTVC 250520Z 2506/2606 14006KT P6SM BKN250 WS015/16035KT
     FM251200 15008KT P6SM BKN100
     FM251900 18010G22KT P6SM BKN070
     FM252200 17008KT P6SM BKN050
     FM260300 14006KT P6SM BKN030=

USA.gov is the U.S. government's official web portal to all federal, state and local government web resources and services.